createdAt,value
2024-03-12T00:01:27.881Z,0.00
2024-03-12T00:03:56.606Z,0.00
2024-03-12T00:06:23.925Z,0.67
2024-03-12T00:08:50.900Z,0.00
2024-03-12T00:11:17.970Z,0.00
2024-03-12T00:13:44.753Z,0.00
2024-03-12T00:16:11.808Z,0.00
2024-03-12T00:18:41.754Z,0.00
2024-03-12T00:21:09.092Z,0.00
2024-03-12T00:23:35.897Z,0.00
2024-03-12T00:26:04.666Z,0.00
2024-03-12T00:28:34.854Z,0.00
2024-03-12T00:31:01.711Z,0.00
2024-03-12T00:33:28.733Z,0.00
2024-03-12T00:35:56.524Z,0.00
2024-03-12T00:38:23.474Z,0.33
2024-03-12T00:40:51.941Z,1.00
2024-03-12T00:43:19.386Z,0.00
2024-03-12T00:45:46.484Z,0.00
2024-03-12T00:48:15.042Z,0.00
2024-03-12T00:50:44.309Z,0.00
2024-03-12T00:53:13.011Z,1.00
2024-03-12T00:55:42.197Z,0.00
2024-03-12T00:58:12.486Z,0.00
2024-03-12T01:00:41.903Z,0.67
2024-03-12T01:03:13.411Z,0.00
2024-03-12T01:05:40.965Z,1.00
2024-03-12T01:08:09.449Z,1.00
2024-03-12T01:10:37.135Z,0.00
2024-03-12T01:13:11.006Z,0.00
2024-03-12T01:15:39.641Z,0.00
2024-03-12T01:18:10.261Z,0.00
2024-03-12T01:20:37.804Z,1.00
2024-03-12T01:23:07.291Z,0.00
2024-03-12T01:25:37.580Z,0.00
2024-03-12T01:28:08.005Z,0.00
2024-03-12T01:30:36.510Z,0.00
2024-03-12T01:33:07.599Z,0.00
2024-03-12T01:35:40.504Z,0.00
2024-03-12T01:38:11.461Z,0.00
2024-03-12T01:40:39.358Z,0.00
2024-03-12T01:43:08.651Z,0.00
2024-03-12T01:45:36.728Z,0.00
2024-03-12T01:48:09.832Z,0.00
2024-03-12T01:50:38.144Z,0.00
2024-03-12T01:53:09.033Z,0.00
2024-03-12T01:55:44.719Z,0.00
2024-03-12T01:58:16.094Z,1.00
2024-03-12T02:00:44.184Z,0.00
2024-03-12T02:03:11.058Z,0.00
2024-03-12T02:05:38.119Z,0.00
2024-03-12T02:08:05.434Z,0.00
2024-03-12T02:10:32.139Z,0.00
2024-03-12T02:12:58.979Z,0.00
2024-03-12T02:15:25.959Z,0.00
2024-03-12T02:17:55.704Z,0.00
2024-03-12T02:20:23.326Z,0.00
2024-03-12T02:22:57.128Z,0.00
2024-03-12T02:25:24.692Z,0.00
2024-03-12T02:27:52.666Z,0.00
2024-03-12T02:30:19.900Z,0.00
2024-03-12T02:32:48.748Z,0.00
2024-03-12T02:35:17.517Z,0.00
2024-03-12T02:37:44.925Z,0.00
2024-03-12T02:40:14.839Z,0.00
2024-03-12T02:42:43.063Z,0.00
2024-03-12T02:45:17.270Z,0.00
2024-03-12T02:47:46.100Z,0.00
2024-03-12T02:50:13.692Z,0.00
2024-03-12T02:52:43.581Z,0.00
2024-03-12T02:55:10.986Z,0.00
2024-03-12T02:57:38.404Z,0.00
2024-03-12T03:00:13.711Z,0.00
2024-03-12T03:02:42.804Z,0.00
2024-03-12T03:05:12.900Z,0.00
2024-03-12T03:07:43.813Z,0.00
2024-03-12T03:10:12.630Z,0.00
2024-03-12T03:12:40.724Z,0.00
2024-03-12T03:15:09.040Z,0.00
2024-03-12T03:17:36.979Z,0.00
2024-03-12T03:20:06.373Z,0.00
2024-03-12T03:22:33.439Z,1.00
2024-03-12T03:25:00.257Z,0.00
2024-03-12T03:27:27.021Z,0.00
2024-03-12T03:29:58.426Z,0.00
2024-03-12T03:32:28.532Z,0.75
2024-03-12T03:34:55.233Z,1.00
2024-03-12T03:37:22.242Z,1.00
2024-03-12T03:39:49.137Z,1.00
2024-03-12T03:42:16.966Z,1.00
2024-03-12T03:44:43.872Z,0.25
2024-03-12T03:47:10.736Z,1.00
2024-03-12T03:49:37.740Z,0.25
2024-03-12T03:52:04.852Z,1.00
2024-03-12T03:54:32.351Z,4.00
2024-03-12T03:56:59.084Z,1.00
2024-03-12T03:59:27.024Z,2.00
2024-03-12T04:01:54.073Z,0.25
2024-03-12T04:04:20.791Z,0.75
2024-03-12T04:06:48.380Z,3.00
2024-03-12T04:09:16.524Z,3.00
2024-03-12T04:11:45.238Z,1.00
2024-03-12T04:14:12.123Z,1.00
2024-03-12T04:16:39.043Z,2.00
2024-03-12T04:19:06.411Z,1.50
2024-03-12T04:21:33.357Z,1.00
2024-03-12T04:24:00.147Z,3.00
2024-03-12T04:26:30.246Z,1.00
2024-03-12T04:28:57.337Z,1.00
2024-03-12T04:31:25.139Z,1.00
2024-03-12T04:33:54.203Z,2.50
2024-03-12T04:36:24.426Z,0.00
2024-03-12T04:38:51.393Z,3.50
2024-03-12T04:41:22.057Z,4.00
2024-03-12T04:43:49.628Z,1.00
2024-03-12T04:46:16.505Z,2.00
2024-03-12T04:48:44.480Z,4.25
2024-03-12T04:51:12.359Z,1.50
2024-03-12T04:53:39.318Z,0.00
2024-03-12T04:56:06.473Z,3.00
2024-03-12T04:58:33.617Z,1.00
2024-03-12T05:01:02.488Z,3.00
2024-03-12T05:03:29.409Z,1.00
2024-03-12T05:05:58.504Z,3.00
2024-03-12T05:08:26.910Z,1.00
2024-03-12T05:10:53.884Z,1.00
2024-03-12T05:13:22.877Z,1.00
2024-03-12T05:15:50.228Z,3.00
2024-03-12T05:18:16.971Z,1.50
2024-03-12T05:20:43.729Z,1.00
2024-03-12T05:23:12.161Z,3.00
2024-03-12T05:25:45.942Z,3.25
2024-03-12T05:28:14.267Z,3.25
2024-03-12T05:30:42.674Z,6.00
2024-03-12T05:33:16.493Z,3.50
2024-03-12T05:35:51.207Z,3.00
2024-03-12T05:38:33.369Z,4.00
2024-03-12T05:41:10.135Z,0.00
2024-03-12T05:43:56.421Z,3.75
2024-03-12T05:46:43.794Z,4.00
2024-03-12T05:49:11.297Z,3.50
2024-03-12T05:51:39.304Z,4.00
2024-03-12T05:54:06.692Z,8.00
2024-03-12T05:56:33.815Z,4.50
2024-03-12T05:59:01.131Z,7.00
2024-03-12T06:01:29.458Z,6.00
2024-03-12T06:03:57.047Z,6.75
2024-03-12T06:06:23.992Z,5.50
2024-03-12T06:08:50.901Z,5.00
2024-03-12T06:11:18.428Z,6.25
2024-03-12T06:13:45.415Z,1.00
2024-03-12T06:16:12.737Z,3.00
2024-03-12T06:18:40.553Z,7.00
2024-03-12T06:21:08.080Z,5.50
2024-03-12T06:23:34.830Z,6.00
2024-03-12T06:26:05.354Z,4.00
2024-03-12T06:28:33.311Z,5.00
2024-03-12T06:31:00.738Z,4.00
2024-03-12T06:33:28.579Z,5.50
2024-03-12T06:35:55.436Z,4.50
2024-03-12T06:38:22.528Z,4.00
2024-03-12T06:40:49.815Z,4.50
2024-03-12T06:43:19.308Z,9.00
2024-03-12T06:45:46.431Z,7.00
2024-03-12T06:48:15.098Z,7.50
2024-03-12T06:50:42.492Z,6.50
2024-03-12T06:53:09.318Z,8.50
2024-03-12T06:55:37.310Z,7.00
2024-03-12T06:58:06.454Z,7.00
2024-03-12T07:00:41.727Z,6.00
2024-03-12T07:03:09.039Z,6.25
2024-03-12T07:05:38.236Z,6.00
2024-03-12T07:08:08.983Z,6.00
2024-03-12T07:10:38.564Z,7.00
2024-03-12T07:13:09.207Z,4.50
2024-03-12T07:15:41.191Z,4.00
2024-03-12T07:18:09.297Z,4.00
2024-03-12T07:20:36.794Z,4.00
2024-03-12T07:23:04.483Z,4.00
2024-03-12T07:25:34.572Z,3.00
2024-03-12T07:28:08.025Z,6.00
2024-03-12T07:30:36.903Z,4.67
2024-03-12T07:33:08.052Z,3.33
2024-03-12T07:35:35.880Z,3.33
2024-03-12T07:38:04.841Z,5.33
2024-03-12T07:40:33.338Z,4.00
2024-03-12T07:43:00.892Z,4.00
2024-03-12T07:45:28.885Z,0.33
2024-03-12T07:47:57.531Z,3.00
2024-03-12T07:50:29.974Z,3.00
2024-03-12T07:52:57.362Z,4.00
2024-03-12T07:55:24.454Z,4.00
2024-03-12T07:57:51.846Z,2.33
2024-03-12T08:00:21.846Z,2.33
2024-03-12T08:02:48.780Z,2.33
2024-03-12T08:05:15.550Z,3.00
2024-03-12T08:07:45.730Z,5.00
2024-03-12T08:10:13.834Z,2.67
2024-03-12T08:12:41.411Z,3.00
2024-03-12T08:15:10.283Z,1.00
2024-03-12T08:17:39.376Z,2.00
2024-03-12T08:20:07.911Z,1.67
2024-03-12T08:22:34.711Z,1.33
2024-03-12T08:25:02.617Z,0.67
2024-03-12T08:27:29.619Z,2.67
2024-03-12T08:29:58.782Z,2.00
2024-03-12T08:32:26.789Z,1.00
2024-03-12T08:34:53.908Z,2.00
2024-03-12T08:37:23.850Z,2.00
2024-03-12T08:39:51.603Z,2.00
2024-03-12T08:42:18.725Z,2.00
2024-03-12T08:44:45.747Z,2.00
2024-03-12T08:47:13.048Z,1.33
2024-03-12T08:49:39.858Z,2.00
2024-03-12T08:52:06.692Z,0.00
2024-03-12T08:54:34.451Z,2.00
2024-03-12T08:57:02.942Z,2.00
2024-03-12T08:59:30.754Z,1.33
2024-03-12T09:02:00.766Z,2.00
2024-03-12T09:04:32.001Z,1.00
2024-03-12T09:06:59.078Z,3.33
2024-03-12T09:09:28.187Z,1.00
2024-03-12T09:11:57.327Z,4.00
2024-03-12T09:14:24.910Z,4.00
2024-03-12T09:16:54.997Z,2.00
2024-03-12T09:19:28.405Z,1.00
2024-03-12T09:21:55.569Z,1.67
2024-03-12T09:24:22.274Z,2.00
2024-03-12T09:26:49.268Z,2.00
2024-03-12T09:29:16.242Z,4.00
2024-03-12T09:31:43.854Z,3.33
2024-03-12T09:34:12.101Z,1.25
2024-03-12T09:36:39.151Z,1.00
2024-03-12T09:39:12.563Z,2.00
2024-03-12T09:41:46.466Z,0.67
2024-03-12T09:44:13.706Z,2.00
2024-03-12T09:46:42.587Z,0.67
2024-03-12T09:49:14.634Z,1.67
2024-03-12T09:51:43.203Z,1.00
2024-03-12T09:54:13.248Z,1.00
2024-03-12T09:56:41.614Z,1.00
2024-03-12T09:59:09.603Z,1.00
2024-03-12T10:01:39.922Z,1.00
2024-03-12T10:04:08.030Z,2.00
2024-03-12T10:06:35.178Z,1.00
2024-03-12T10:09:02.438Z,1.00
2024-03-12T10:11:31.656Z,1.00
2024-03-12T10:14:00.190Z,2.67
2024-03-12T10:16:29.145Z,1.33
2024-03-12T10:19:11.368Z,2.00
2024-03-12T10:21:39.053Z,2.00
2024-03-12T10:24:19.143Z,0.00
2024-03-12T10:26:46.531Z,1.00
2024-03-12T10:29:15.407Z,0.33
2024-03-12T10:31:45.312Z,0.67
2024-03-12T10:34:21.874Z,0.00
2024-03-12T10:36:51.712Z,1.33
2024-03-12T10:39:30.110Z,0.00
2024-03-12T10:42:00.960Z,1.00
2024-03-12T10:44:30.142Z,0.00
2024-03-12T10:46:59.846Z,0.00
2024-03-12T10:49:27.952Z,1.00
2024-03-12T10:51:56.721Z,1.33
2024-03-12T10:54:24.253Z,1.00
2024-03-12T10:56:51.561Z,0.67
2024-03-12T10:59:21.155Z,0.33
2024-03-12T11:01:49.660Z,0.00
2024-03-12T11:04:17.405Z,0.00
2024-03-12T11:06:45.182Z,0.00
2024-03-12T11:09:19.339Z,1.00
2024-03-12T11:11:46.280Z,0.00
2024-03-12T11:14:13.511Z,1.00
2024-03-12T11:16:41.872Z,1.00
2024-03-12T11:19:20.689Z,0.00
2024-03-12T11:21:53.147Z,0.00
2024-03-12T11:24:44.147Z,0.67
2024-03-12T11:27:20.910Z,0.00
2024-03-12T11:30:12.871Z,0.00
2024-03-12T11:32:42.070Z,1.00
2024-03-12T11:35:18.222Z,0.33
2024-03-12T11:38:03.870Z,0.67
2024-03-12T11:40:39.330Z,1.00
2024-03-12T11:43:12.541Z,0.33
2024-03-12T11:45:48.479Z,0.00
2024-03-12T11:48:33.094Z,4.00
2024-03-12T11:51:01.245Z,1.00
2024-03-12T11:53:32.885Z,1.00
2024-03-12T11:56:11.606Z,0.00
2024-03-12T11:58:49.861Z,0.00
2024-03-12T12:01:25.834Z,0.00
2024-03-12T12:04:15.900Z,0.00
2024-03-12T12:06:44.513Z,0.00
2024-03-12T12:09:11.957Z,1.00
2024-03-12T12:11:40.235Z,1.50
2024-03-12T12:14:09.903Z,4.50
2024-03-12T12:16:37.698Z,6.67
2024-03-12T12:19:09.302Z,0.75
2024-03-12T12:21:37.791Z,1.00
2024-03-12T12:24:05.687Z,3.33
2024-03-12T12:26:37.833Z,1.00
2024-03-12T12:29:06.485Z,3.33
2024-03-12T12:31:37.818Z,1.00
2024-03-12T12:34:07.276Z,1.00
2024-03-12T12:36:40.189Z,0.67
2024-03-12T12:39:12.139Z,1.00
2024-03-12T12:41:44.581Z,0.00
2024-03-12T12:44:19.219Z,0.33
2024-03-12T12:46:47.551Z,0.33
2024-03-12T12:49:22.010Z,2.00
2024-03-12T12:51:49.336Z,1.67
2024-03-12T12:54:17.266Z,2.00
2024-03-12T12:56:45.716Z,1.00
2024-03-12T12:59:21.751Z,2.67
2024-03-12T13:01:49.787Z,2.67
2024-03-12T13:04:21.549Z,4.00
2024-03-12T13:06:48.641Z,2.67
2024-03-12T13:09:37.726Z,0.00
2024-03-12T13:12:09.058Z,1.00
2024-03-12T13:14:38.437Z,1.00
2024-03-12T13:17:06.863Z,1.00
2024-03-12T13:19:34.208Z,0.00
2024-03-12T13:22:03.692Z,2.00
2024-03-12T13:24:31.225Z,2.00
2024-03-12T13:26:59.621Z,2.00
2024-03-12T13:29:27.142Z,1.33
2024-03-12T13:31:54.915Z,1.00
2024-03-12T13:34:24.699Z,2.00
2024-03-12T13:36:53.019Z,1.67
2024-03-12T13:39:20.727Z,1.67
2024-03-12T13:41:48.068Z,2.67
2024-03-12T13:44:15.112Z,1.00
2024-03-12T13:46:44.490Z,1.00
2024-03-12T13:49:15.298Z,2.00
2024-03-12T13:51:44.161Z,1.00
2024-03-12T13:54:11.909Z,7.33
2024-03-12T13:56:39.129Z,7.33
2024-03-12T13:59:06.346Z,12.00
2024-03-12T14:01:34.090Z,9.00
2024-03-12T14:04:01.195Z,6.00
2024-03-12T14:06:31.730Z,7.33
2024-03-12T14:08:58.844Z,4.00
2024-03-12T14:11:27.083Z,5.00
2024-03-12T14:13:57.063Z,4.33
2024-03-12T14:16:25.433Z,9.00
2024-03-12T14:18:54.111Z,4.67
2024-03-12T14:21:21.110Z,4.00
2024-03-12T14:23:49.011Z,3.33
2024-03-12T14:26:19.281Z,6.67
2024-03-12T14:28:47.552Z,9.00
2024-03-12T14:31:17.982Z,9.00
2024-03-12T14:33:45.006Z,10.67
2024-03-12T14:36:12.023Z,11.33
2024-03-12T14:38:39.208Z,6.00
2024-03-12T14:41:07.838Z,9.67
2024-03-12T14:43:35.461Z,8.67
2024-03-12T14:46:04.329Z,9.00
2024-03-12T14:48:31.194Z,10.00
2024-03-12T14:51:01.000Z,11.67
2024-03-12T14:53:28.544Z,8.67
2024-03-12T14:55:56.024Z,11.67
2024-03-12T14:58:23.337Z,7.33
2024-03-12T15:00:50.481Z,9.67
2024-03-12T15:03:20.229Z,9.00
2024-03-12T15:05:50.156Z,12.00
2024-03-12T15:08:17.201Z,9.00
2024-03-12T15:10:44.114Z,9.67
2024-03-12T15:13:11.111Z,9.67
2024-03-12T15:15:38.313Z,12.33
2024-03-12T15:18:06.095Z,14.00
2024-03-12T15:20:32.858Z,14.67
2024-03-12T15:23:02.555Z,12.33
2024-03-12T15:25:29.543Z,9.00
2024-03-12T15:27:57.566Z,15.33
2024-03-12T15:30:25.673Z,9.33
2024-03-12T15:32:52.930Z,12.00
2024-03-12T15:35:22.643Z,9.67
2024-03-12T15:37:49.763Z,12.67
2024-03-12T15:40:19.735Z,19.33
2024-03-12T15:42:46.950Z,8.00
2024-03-12T15:45:16.972Z,12.67
2024-03-12T15:47:45.171Z,12.00
2024-03-12T15:50:13.614Z,14.00
2024-03-12T15:52:40.839Z,13.00
2024-03-12T15:55:09.656Z,12.00
2024-03-12T15:57:40.038Z,11.33
2024-03-12T16:00:09.716Z,13.00
2024-03-12T16:02:36.682Z,10.00
2024-03-12T16:05:06.820Z,13.00
2024-03-12T16:07:37.770Z,12.00
2024-03-12T16:10:09.946Z,16.67
2024-03-12T16:12:39.684Z,19.67
2024-03-12T16:15:10.920Z,16.00
2024-03-12T16:17:38.131Z,16.67
2024-03-12T16:20:14.712Z,23.00
2024-03-12T16:22:45.587Z,24.33
2024-03-12T16:25:15.111Z,24.00
2024-03-12T16:27:44.755Z,16.00
2024-03-12T16:30:15.088Z,16.33
2024-03-12T16:32:42.965Z,18.00
2024-03-12T16:35:10.145Z,19.67
2024-03-12T16:37:40.173Z,20.33
2024-03-12T16:40:09.430Z,20.33
2024-03-12T16:42:37.070Z,24.67
2024-03-12T16:45:05.031Z,26.67
2024-03-12T16:47:32.008Z,31.00
2024-03-12T16:50:01.543Z,31.67
2024-03-12T16:52:28.944Z,34.00
2024-03-12T16:54:56.169Z,28.00
2024-03-12T16:57:23.283Z,25.00
2024-03-12T16:59:57.187Z,21.67
2024-03-12T17:02:26.322Z,14.33
2024-03-12T17:04:57.779Z,17.67
2024-03-12T17:07:25.528Z,18.33
2024-03-12T17:09:52.645Z,16.00
2024-03-12T17:12:21.347Z,18.33
2024-03-12T17:14:49.105Z,19.00
2024-03-12T17:17:22.627Z,14.33
2024-03-12T17:19:49.639Z,15.33
2024-03-12T17:22:16.692Z,15.00
2024-03-12T17:24:43.883Z,18.33
2024-03-12T17:27:11.995Z,15.00
2024-03-12T17:29:39.062Z,17.00
2024-03-12T17:32:06.577Z,16.33
2024-03-12T17:34:33.799Z,13.33
2024-03-12T17:37:05.230Z,16.33
2024-03-12T17:39:35.627Z,19.00
2024-03-12T17:42:02.810Z,19.00
2024-03-12T17:44:30.087Z,13.67
2024-03-12T17:46:58.520Z,13.00
2024-03-12T17:49:26.967Z,9.67
2024-03-12T17:51:55.164Z,10.33
2024-03-12T17:54:22.982Z,10.33
2024-03-12T17:56:51.724Z,8.67
2024-03-12T17:59:20.541Z,12.33
2024-03-12T18:01:48.483Z,11.67
2024-03-12T18:04:16.382Z,13.00
2024-03-12T18:06:45.535Z,21.33
2024-03-12T18:09:13.752Z,24.67
2024-03-12T18:11:41.423Z,22.00
2024-03-12T18:14:10.677Z,22.33
2024-03-12T18:16:38.900Z,20.67
2024-03-12T18:19:09.325Z,19.00
2024-03-12T18:21:37.293Z,19.67
2024-03-12T18:24:06.755Z,22.33
2024-03-12T18:26:35.743Z,27.00
2024-03-12T18:29:04.623Z,26.00
2024-03-12T18:31:32.045Z,25.00
2024-03-12T18:33:59.430Z,23.00
2024-03-12T18:36:26.132Z,21.33
2024-03-12T18:38:53.031Z,19.00
2024-03-12T18:41:19.889Z,19.67
2024-03-12T18:43:48.261Z,16.67
2024-03-12T18:46:14.924Z,19.00
2024-03-12T18:48:42.807Z,19.00
2024-03-12T18:51:10.827Z,24.67
2024-03-12T18:53:39.293Z,20.67
2024-03-12T18:56:07.208Z,19.33
2024-03-12T18:58:35.047Z,21.00
2024-03-12T19:01:03.126Z,18.67
2024-03-12T19:03:51.915Z,17.33
2024-03-12T19:06:27.138Z,18.00
2024-03-12T19:08:57.738Z,18.00
2024-03-12T19:11:28.434Z,24.33
2024-03-12T19:13:56.885Z,17.33
2024-03-12T19:16:26.750Z,16.33
2024-03-12T19:18:55.068Z,19.67
2024-03-12T19:21:22.316Z,18.67
2024-03-12T19:23:52.674Z,11.00
2024-03-12T19:26:20.313Z,19.67
2024-03-12T19:28:47.260Z,21.00
2024-03-12T19:31:16.027Z,14.00
2024-03-12T19:33:45.184Z,19.33
2024-03-12T19:36:13.553Z,13.33
2024-03-12T19:38:40.733Z,21.67
2024-03-12T19:41:08.592Z,20.00
2024-03-12T19:43:38.561Z,22.00
2024-03-12T19:46:06.623Z,20.33
2024-03-12T19:48:34.648Z,18.67
2024-03-12T19:51:01.907Z,21.67
2024-03-12T19:53:28.842Z,21.00
2024-03-12T19:55:56.003Z,23.67
2024-03-12T19:58:23.126Z,21.67
2024-03-12T20:00:52.822Z,24.33
2024-03-12T20:03:23.970Z,17.00
2024-03-12T20:05:51.155Z,21.67
2024-03-12T20:08:18.204Z,20.67
2024-03-12T20:10:47.551Z,24.00
2024-03-12T20:13:14.767Z,20.33
2024-03-12T20:15:47.057Z,21.00
2024-03-12T20:18:15.185Z,25.75
2024-03-12T20:20:45.019Z,26.25
2024-03-12T20:23:12.373Z,25.25
2024-03-12T20:25:39.589Z,25.75
2024-03-12T20:28:11.237Z,26.75
2024-03-12T20:30:40.480Z,24.00
2024-03-12T20:33:09.985Z,26.25
2024-03-12T20:35:39.326Z,23.00
2024-03-12T20:38:10.351Z,22.67
2024-03-12T20:40:37.373Z,22.00
2024-03-12T20:43:07.179Z,22.75
2024-03-12T20:45:35.641Z,22.00
2024-03-12T20:48:02.992Z,26.00
2024-03-12T20:50:30.510Z,25.50
2024-03-12T20:52:57.548Z,27.25
2024-03-12T20:55:25.253Z,24.75
2024-03-12T20:57:52.419Z,24.00
2024-03-12T21:00:27.931Z,25.25
2024-03-12T21:02:55.248Z,26.00
2024-03-12T21:05:22.569Z,27.00
2024-03-12T21:07:52.863Z,25.75
2024-03-12T21:10:20.550Z,23.00
2024-03-12T21:12:52.281Z,25.75
2024-03-12T21:15:28.649Z,27.25
2024-03-12T21:17:55.543Z,32.00
2024-03-12T21:20:34.433Z,28.00
2024-03-12T21:23:01.498Z,22.75
2024-03-12T21:25:28.420Z,25.25
2024-03-12T21:27:55.271Z,22.25
2024-03-12T21:30:25.065Z,27.75
2024-03-12T21:32:52.467Z,28.25
2024-03-12T21:35:19.387Z,29.25
2024-03-12T21:37:46.364Z,28.50
2024-03-12T21:40:13.736Z,26.25
2024-03-12T21:42:43.876Z,27.00
2024-03-12T21:45:11.410Z,24.00
2024-03-12T21:47:38.974Z,27.00
2024-03-12T21:50:09.797Z,23.50
2024-03-12T21:52:37.353Z,23.25
2024-03-12T21:55:07.508Z,25.75
2024-03-12T21:57:38.058Z,23.25
2024-03-12T22:00:12.854Z,25.75
2024-03-12T22:02:40.321Z,21.75
2024-03-12T22:05:07.308Z,25.75
2024-03-12T22:07:38.238Z,22.25
2024-03-12T22:10:06.486Z,25.25
2024-03-12T22:12:33.314Z,22.00
2024-03-12T22:15:00.211Z,20.75
2024-03-12T22:17:27.135Z,15.50
2024-03-12T22:19:55.187Z,19.00
2024-03-12T22:22:22.252Z,20.00
2024-03-12T22:24:49.068Z,19.75
2024-03-12T22:27:15.818Z,18.25
2024-03-12T22:29:42.648Z,24.00
2024-03-12T22:32:15.386Z,22.75
2024-03-12T22:34:42.517Z,20.75
2024-03-12T22:37:10.152Z,22.00
2024-03-12T22:39:38.033Z,16.75
2024-03-12T22:42:06.302Z,19.50
2024-03-12T22:44:33.380Z,22.50
2024-03-12T22:47:02.123Z,19.25
2024-03-12T22:49:29.002Z,19.75
2024-03-12T22:51:57.208Z,19.00
2024-03-12T22:54:24.466Z,21.25
2024-03-12T22:56:51.400Z,18.33
2024-03-12T22:59:20.105Z,19.33
2024-03-12T23:01:54.203Z,20.00
2024-03-12T23:04:25.489Z,19.00
2024-03-12T23:06:52.650Z,20.50
2024-03-12T23:09:21.040Z,16.67
2024-03-12T23:11:47.826Z,22.33
2024-03-12T23:14:15.120Z,20.67
2024-03-12T23:16:41.986Z,16.50
2024-03-12T23:19:12.796Z,20.67
2024-03-12T23:21:40.000Z,17.00
2024-03-12T23:24:07.325Z,19.67
2024-03-12T23:26:34.170Z,20.00
2024-03-12T23:29:00.924Z,20.67
2024-03-12T23:31:27.739Z,17.33
2024-03-12T23:33:57.517Z,20.50
2024-03-12T23:36:29.216Z,17.25
2024-03-12T23:38:56.690Z,20.75
2024-03-12T23:41:24.928Z,20.67
2024-03-12T23:43:54.119Z,15.33
2024-03-12T23:46:21.900Z,16.67
2024-03-12T23:48:49.693Z,19.67
2024-03-12T23:51:16.664Z,20.00
2024-03-12T23:53:47.339Z,19.33
2024-03-12T23:56:14.113Z,21.00
2024-03-12T23:58:40.880Z,21.00
